createdAt,value
2023-05-21T00:00:34.850Z,98836.63
2023-05-21T00:03:13.797Z,98840.09
2023-05-21T00:05:47.303Z,98839.44
2023-05-21T00:08:20.222Z,98836.44
2023-05-21T00:10:54.417Z,98830.97
2023-05-21T00:13:27.261Z,98828.59
2023-05-21T00:16:00.418Z,98826.63
2023-05-21T00:18:34.304Z,98826.81
2023-05-21T00:21:07.700Z,98826.47
2023-05-21T00:23:42.742Z,98825.84
2023-05-21T00:26:17.017Z,98819.13
2023-05-21T00:28:51.010Z,98826.09
2023-05-21T00:31:23.991Z,98823.69
2023-05-21T00:33:57.188Z,98815.00
2023-05-21T00:36:30.944Z,98811.44
2023-05-21T00:39:04.594Z,98813.44
2023-05-21T00:41:40.096Z,98817.31
2023-05-21T00:44:14.167Z,98818.97
2023-05-21T00:46:48.857Z,98819.06
2023-05-21T00:49:24.527Z,98812.31
2023-05-21T00:51:57.814Z,98801.94
2023-05-21T00:54:31.560Z,98806.81
2023-05-21T00:57:06.907Z,98805.75
2023-05-21T00:59:40.818Z,98808.94
2023-05-21T01:02:14.354Z,98804.84
2023-05-21T01:04:47.614Z,98802.34
2023-05-21T01:07:20.436Z,98802.50
2023-05-21T01:09:54.279Z,98807.31
2023-05-21T01:12:28.719Z,98805.88
2023-05-21T01:15:03.824Z,98806.47
2023-05-21T01:17:36.869Z,98809.00
2023-05-21T01:20:11.410Z,98799.34
2023-05-21T01:22:50.229Z,98796.69
2023-05-21T01:25:24.205Z,98795.75
2023-05-21T01:27:57.910Z,98796.84
2023-05-21T01:30:30.837Z,98791.69
2023-05-21T01:33:09.160Z,98783.94
2023-05-21T01:35:48.546Z,98789.38
2023-05-21T01:38:27.250Z,98783.25
2023-05-21T01:41:04.656Z,98788.84
2023-05-21T01:43:40.316Z,98788.31
2023-05-21T01:46:18.230Z,98785.59
2023-05-21T01:48:53.827Z,98788.25
2023-05-21T01:51:28.176Z,98795.31
2023-05-21T01:54:02.619Z,98784.22
2023-05-21T01:56:37.120Z,98781.22
2023-05-21T01:59:10.180Z,98791.44
2023-05-21T02:01:43.136Z,98785.97
2023-05-21T02:04:15.990Z,98790.97
2023-05-21T02:06:48.831Z,98778.00
2023-05-21T02:09:23.007Z,98789.72
2023-05-21T02:11:57.033Z,98783.31
2023-05-21T02:14:30.776Z,98787.50
2023-05-21T02:17:03.630Z,98784.88
2023-05-21T02:19:36.508Z,98784.69
2023-05-21T02:22:09.437Z,98776.28
2023-05-21T02:24:43.723Z,98771.13
2023-05-21T02:27:17.755Z,98775.03
2023-05-21T02:29:50.536Z,98779.72
2023-05-21T02:32:23.738Z,98772.69
2023-05-21T02:34:56.874Z,98776.91
2023-05-21T02:37:29.735Z,98776.88
2023-05-21T02:40:06.046Z,98773.47
2023-05-21T02:42:41.516Z,98764.41
2023-05-21T02:45:17.588Z,98770.03
2023-05-21T02:47:50.556Z,98769.25
2023-05-21T02:50:25.549Z,98767.19
2023-05-21T02:53:02.626Z,98770.97
2023-05-21T02:55:37.722Z,98766.13
2023-05-21T02:58:13.517Z,98767.69
2023-05-21T03:00:46.921Z,98765.66
2023-05-21T03:03:20.325Z,98760.97
2023-05-21T03:05:53.571Z,98757.84
2023-05-21T03:08:26.492Z,98767.66
2023-05-21T03:11:00.741Z,98769.88
2023-05-21T03:13:33.725Z,98761.13
2023-05-21T03:16:07.042Z,98757.06
2023-05-21T03:18:39.849Z,98756.25
2023-05-21T03:21:18.300Z,98756.75
2023-05-21T03:23:51.418Z,98757.38
2023-05-21T03:26:27.325Z,98754.88
2023-05-21T03:29:01.536Z,98766.63
2023-05-21T03:31:34.573Z,98767.69
2023-05-21T03:34:13.689Z,98767.22
2023-05-21T03:36:47.273Z,98767.22
2023-05-21T03:39:21.536Z,98769.25
2023-05-21T03:41:56.248Z,98775.34
2023-05-21T03:44:38.236Z,98767.53
2023-05-21T03:47:45.840Z,98772.22
2023-05-21T03:50:18.958Z,98772.34
2023-05-21T03:52:51.809Z,98773.59
2023-05-21T03:55:24.726Z,98780.31
2023-05-21T03:57:58.935Z,98779.34
2023-05-21T04:00:32.630Z,98781.56
2023-05-21T04:03:07.199Z,98783.00
2023-05-21T04:05:40.404Z,98782.50
2023-05-21T04:08:13.556Z,98775.94
2023-05-21T04:10:46.455Z,98779.31
2023-05-21T04:13:20.734Z,98785.88
2023-05-21T04:15:54.489Z,98783.50
2023-05-21T04:18:27.428Z,98786.63
2023-05-21T04:21:00.916Z,98784.44
2023-05-21T04:23:36.662Z,98784.38
2023-05-21T04:26:13.717Z,98789.22
2023-05-21T04:28:50.482Z,98782.88
2023-05-21T04:31:23.718Z,98781.34
2023-05-21T04:33:57.040Z,98796.44
2023-05-21T04:36:30.187Z,98792.28
2023-05-21T04:39:06.319Z,98783.97
2023-05-21T04:41:39.565Z,98786.53
2023-05-21T04:44:15.426Z,98796.03
2023-05-21T04:46:50.722Z,98799.47
2023-05-21T04:49:24.093Z,98799.50
2023-05-21T04:51:57.636Z,98796.84
2023-05-21T04:54:30.563Z,98794.03
2023-05-21T04:57:03.459Z,98789.66
2023-05-21T04:59:37.814Z,98789.50
2023-05-21T05:02:10.670Z,98797.28
2023-05-21T05:04:43.987Z,98798.19
2023-05-21T05:07:17.306Z,98796.19
2023-05-21T05:09:50.160Z,98805.63
2023-05-21T05:12:23.090Z,98800.66
2023-05-21T05:14:57.365Z,98801.13
2023-05-21T05:17:30.260Z,98795.38
2023-05-21T05:20:05.207Z,98792.94
2023-05-21T05:22:38.429Z,98796.72
2023-05-21T05:25:11.220Z,98794.63
2023-05-21T05:27:44.155Z,98794.44
2023-05-21T05:30:18.460Z,98790.25
2023-05-21T05:32:51.497Z,98791.53
2023-05-21T05:35:24.627Z,98795.91
2023-05-21T05:37:57.660Z,98798.56
2023-05-21T05:40:30.622Z,98798.16
2023-05-21T05:43:03.452Z,98793.97
2023-05-21T05:45:38.221Z,98791.13
2023-05-21T05:48:16.872Z,98780.59
2023-05-21T05:50:54.554Z,98789.75
2023-05-21T05:53:28.649Z,98777.94
2023-05-21T05:56:03.040Z,98777.84
2023-05-21T05:58:37.320Z,98785.66
2023-05-21T06:01:17.853Z,98776.13
2023-05-21T06:03:51.333Z,98781.81
2023-05-21T06:06:26.918Z,98787.09
2023-05-21T06:08:59.715Z,98780.97
2023-05-21T06:11:32.491Z,98786.72
2023-05-21T06:14:05.434Z,98787.47
2023-05-21T06:16:40.297Z,98783.22
2023-05-21T06:19:13.491Z,98779.34
2023-05-21T06:21:46.450Z,98779.50
2023-05-21T06:24:19.552Z,98784.16
2023-05-21T06:26:52.503Z,98783.59
2023-05-21T06:29:25.738Z,98780.34
2023-05-21T06:32:02.725Z,98775.91
2023-05-21T06:34:35.709Z,98772.06
2023-05-21T06:37:08.707Z,98777.91
2023-05-21T06:39:41.804Z,98773.97
2023-05-21T06:42:14.992Z,98769.81
2023-05-21T06:44:59.605Z,98770.78
2023-05-21T06:47:37.518Z,98776.09
2023-05-21T06:50:10.824Z,98771.34
2023-05-21T06:52:43.957Z,98777.81
2023-05-21T06:55:17.272Z,98760.38
2023-05-21T06:58:08.754Z,98774.03
2023-05-21T07:00:41.969Z,98775.09
2023-05-21T07:03:17.458Z,98782.38
2023-05-21T07:05:50.451Z,98781.53
2023-05-21T07:08:23.729Z,98781.19
2023-05-21T07:10:59.470Z,98773.97
2023-05-21T07:13:32.533Z,98777.34
2023-05-21T07:16:06.330Z,98778.94
2023-05-21T07:18:40.465Z,98775.94
2023-05-21T07:21:13.389Z,98784.38
2023-05-21T07:23:46.252Z,98781.34
2023-05-21T07:26:19.428Z,98788.34
2023-05-21T07:28:52.307Z,98787.56
2023-05-21T07:31:26.059Z,98780.84
2023-05-21T07:34:00.861Z,98784.41
2023-05-21T07:36:37.297Z,98777.13
2023-05-21T07:39:10.623Z,98779.19
2023-05-21T07:41:44.322Z,98773.28
2023-05-21T07:44:17.408Z,98776.09
2023-05-21T07:46:52.373Z,98770.75
2023-05-21T07:49:27.390Z,98774.53
2023-05-21T07:52:00.418Z,98766.72
2023-05-21T07:54:33.316Z,98774.13
2023-05-21T07:57:06.908Z,98767.94
2023-05-21T07:59:56.515Z,98770.00
2023-05-21T08:02:30.065Z,98765.34
2023-05-21T08:05:04.692Z,98775.91
2023-05-21T08:07:37.938Z,98764.78
2023-05-21T08:10:11.427Z,98764.81
2023-05-21T08:12:44.443Z,98769.00
2023-05-21T08:15:18.408Z,98778.59
2023-05-21T08:17:53.269Z,98782.75
2023-05-21T08:20:27.888Z,98781.69
2023-05-21T08:23:01.385Z,98779.69
2023-05-21T08:25:39.607Z,98784.06
2023-05-21T08:28:12.659Z,98781.19
2023-05-21T08:30:46.713Z,98776.72
2023-05-21T08:33:21.421Z,98785.59
2023-05-21T08:35:56.126Z,98771.91
2023-05-21T08:38:33.934Z,98772.13
2023-05-21T08:41:15.533Z,98775.13
2023-05-21T08:43:50.854Z,98777.84
2023-05-21T08:46:25.720Z,98770.25
2023-05-21T08:49:00.132Z,98772.66
2023-05-21T08:51:34.576Z,98762.22
2023-05-21T08:54:10.245Z,98775.31
2023-05-21T08:56:49.317Z,98773.97
2023-05-21T08:59:24.067Z,98771.13
2023-05-21T09:01:58.286Z,98777.66
2023-05-21T09:04:38.898Z,98767.78
2023-05-21T09:07:13.713Z,98773.16
2023-05-21T09:10:13.419Z,98774.66
2023-05-21T09:12:49.038Z,98770.94
2023-05-21T09:15:22.812Z,98778.03
2023-05-21T09:17:56.024Z,98775.03
2023-05-21T09:20:58.113Z,98757.03
2023-05-21T09:23:34.091Z,98761.06
2023-05-21T09:26:13.816Z,98764.19
2023-05-21T09:28:46.787Z,98771.34
2023-05-21T09:31:20.084Z,98775.97
2023-05-21T09:33:55.557Z,98766.31
2023-05-21T09:36:30.864Z,98774.28
2023-05-21T09:39:08.515Z,98771.69
2023-05-21T09:41:44.216Z,98768.63
2023-05-21T09:44:20.237Z,98774.66
2023-05-21T09:46:58.937Z,98768.66
2023-05-21T09:49:31.979Z,98780.28
2023-05-21T09:52:06.725Z,98771.06
2023-05-21T09:54:42.188Z,98761.78
2023-05-21T09:57:17.375Z,98769.88
2023-05-21T09:59:52.175Z,98772.13
2023-05-21T10:02:26.587Z,98767.75
2023-05-21T10:05:00.902Z,98760.47
2023-05-21T10:07:35.765Z,98759.25
2023-05-21T10:10:14.686Z,98766.16
2023-05-21T10:12:48.876Z,98750.66
2023-05-21T10:15:25.186Z,98761.31
2023-05-21T10:18:00.388Z,98756.25
2023-05-21T10:20:34.642Z,98753.34
2023-05-21T10:23:09.005Z,98764.34
2023-05-21T10:25:43.603Z,98757.69
2023-05-21T10:28:18.611Z,98755.34
2023-05-21T10:30:51.642Z,98745.22
2023-05-21T10:33:25.202Z,98751.09
2023-05-21T10:35:59.987Z,98747.88
2023-05-21T10:38:34.736Z,98745.81
2023-05-21T10:41:11.109Z,98743.91
2023-05-21T10:43:58.401Z,98747.97
2023-05-21T10:47:03.918Z,98741.91
2023-05-21T10:49:52.569Z,98744.56
2023-05-21T10:52:47.874Z,98744.53
2023-05-21T10:55:43.905Z,98742.72
2023-05-21T10:58:47.578Z,98741.50
2023-05-21T11:01:26.739Z,98740.81
2023-05-21T11:04:00.094Z,98738.16
2023-05-21T11:06:33.364Z,98735.34
2023-05-21T11:09:13.781Z,98740.69
2023-05-21T11:11:51.270Z,98731.25
2023-05-21T11:14:31.931Z,98730.25
2023-05-21T11:17:11.258Z,98728.56
2023-05-21T11:19:47.165Z,98735.81
2023-05-21T11:22:24.362Z,98734.91
2023-05-21T11:25:01.996Z,98735.31
2023-05-21T11:27:37.353Z,98727.78
2023-05-21T11:30:17.142Z,98731.53
2023-05-21T11:33:29.838Z,98732.34
2023-05-21T11:36:03.514Z,98735.91
2023-05-21T11:38:39.429Z,98727.25
2023-05-21T11:41:12.839Z,98717.69
2023-05-21T11:43:46.139Z,98719.69
2023-05-21T11:46:21.022Z,98721.47
2023-05-21T11:49:25.589Z,98714.44
2023-05-21T11:51:59.781Z,98716.88
2023-05-21T11:54:37.570Z,98711.09
2023-05-21T11:57:13.755Z,98715.00
2023-05-21T11:59:47.483Z,98708.19
2023-05-21T12:02:23.496Z,98715.44
2023-05-21T12:05:00.141Z,98709.22
2023-05-21T12:07:33.710Z,98719.50
2023-05-21T12:13:01.991Z,98719.38
2023-05-21T12:15:39.277Z,98722.09
2023-05-21T12:18:17.933Z,98713.50
2023-05-21T12:20:52.442Z,98722.31
2023-05-21T12:23:28.049Z,98718.97
2023-05-21T12:26:06.908Z,98713.22
2023-05-21T12:28:40.647Z,98708.91
2023-05-21T12:31:16.374Z,98715.81
2023-05-21T12:33:51.532Z,98714.13
2023-05-21T12:36:28.372Z,98721.91
2023-05-21T12:39:01.539Z,98716.63
2023-05-21T12:41:34.554Z,98723.53
2023-05-21T12:44:08.795Z,98715.44
2023-05-21T12:46:42.834Z,98715.88
2023-05-21T12:49:38.774Z,98716.56
2023-05-21T12:52:13.510Z,98705.94
2023-05-21T12:54:50.501Z,98709.97
2023-05-21T12:57:28.490Z,98713.44
2023-05-21T13:00:06.736Z,98722.97
2023-05-21T13:02:41.671Z,98723.97
2023-05-21T13:05:19.604Z,98714.41
2023-05-21T13:07:52.827Z,98711.84
2023-05-21T13:10:27.083Z,98714.16
2023-05-21T13:13:00.596Z,98720.66
2023-05-21T13:15:33.812Z,98714.22
2023-05-21T13:18:06.698Z,98715.69
2023-05-21T13:20:41.173Z,98699.22
2023-05-21T13:23:14.341Z,98706.19
2023-05-21T13:25:47.245Z,98710.69
2023-05-21T13:28:20.248Z,98716.13
2023-05-21T13:30:54.979Z,98715.19
2023-05-21T13:33:33.852Z,98709.00
2023-05-21T13:36:08.951Z,98704.41
2023-05-21T13:38:42.027Z,98709.00
2023-05-21T13:41:17.469Z,98706.75
2023-05-21T13:43:52.798Z,98703.09
2023-05-21T13:46:26.430Z,98710.75
2023-05-21T13:49:00.740Z,98705.16
2023-05-21T13:51:38.514Z,98716.19
2023-05-21T13:54:14.106Z,98720.69
2023-05-21T13:56:47.079Z,98706.56
2023-05-21T13:59:20.254Z,98707.72
2023-05-21T14:01:55.457Z,98711.28
2023-05-21T14:04:30.049Z,98706.94
2023-05-21T14:07:04.635Z,98710.63
2023-05-21T14:09:39.873Z,98700.63
2023-05-21T14:12:12.960Z,98712.19
2023-05-21T14:14:46.091Z,98704.16
2023-05-21T14:17:19.350Z,98696.13
2023-05-21T14:19:52.413Z,98701.22
2023-05-21T14:22:26.843Z,98698.53
2023-05-21T14:25:00.361Z,98700.16
2023-05-21T14:27:34.343Z,98693.69
2023-05-21T14:30:08.454Z,98692.47
2023-05-21T14:32:41.447Z,98685.75
2023-05-21T14:35:14.332Z,98686.06
2023-05-21T14:37:50.186Z,98694.63
2023-05-21T14:40:23.708Z,98689.09
2023-05-21T14:42:56.776Z,98697.97
2023-05-21T14:45:29.993Z,98684.19
2023-05-21T14:48:08.624Z,98694.78
2023-05-21T14:50:42.583Z,98687.53
2023-05-21T14:53:17.462Z,98688.56
2023-05-21T14:55:50.746Z,98687.19
2023-05-21T14:58:24.243Z,98687.00
2023-05-21T15:00:57.660Z,98674.78
2023-05-21T15:03:30.997Z,98675.81
2023-05-21T15:06:04.364Z,98673.91
2023-05-21T15:08:39.054Z,98679.28
2023-05-21T15:11:12.258Z,98678.66
2023-05-21T15:13:45.447Z,98674.53
2023-05-21T15:16:19.796Z,98671.44
2023-05-21T15:18:53.067Z,98674.50
2023-05-21T15:21:27.978Z,98676.41
2023-05-21T15:24:02.812Z,98671.63
2023-05-21T15:26:35.947Z,98661.97
2023-05-21T15:29:08.998Z,98666.63
2023-05-21T15:31:42.296Z,98651.25
2023-05-21T15:34:18.051Z,98665.56
2023-05-21T15:36:51.289Z,98659.19
2023-05-21T15:39:31.839Z,98652.81
2023-05-21T15:42:05.052Z,98654.28
2023-05-21T15:44:38.330Z,98648.47
2023-05-21T15:47:11.405Z,98642.34
2023-05-21T15:49:44.320Z,98645.66
2023-05-21T15:52:17.717Z,98645.53
2023-05-21T15:54:52.270Z,98647.75
2023-05-21T15:57:25.421Z,98643.00
2023-05-21T15:59:59.056Z,98644.38
2023-05-21T16:02:32.383Z,98641.88
2023-05-21T16:05:06.681Z,98641.50
2023-05-21T16:07:40.223Z,98634.88
2023-05-21T16:10:15.374Z,98634.72
2023-05-21T16:12:48.889Z,98633.91
2023-05-21T16:15:22.519Z,98636.81
2023-05-21T16:17:56.156Z,98626.38
2023-05-21T16:23:53.274Z,98627.75
2023-05-21T16:26:35.826Z,98622.19
2023-05-21T16:29:19.259Z,98629.13
2023-05-21T16:31:55.583Z,98631.19
2023-05-21T16:34:29.203Z,98625.16
2023-05-21T16:37:02.674Z,98625.00
2023-05-21T16:39:36.412Z,98619.78
2023-05-21T16:42:13.541Z,98627.84
2023-05-21T16:44:47.779Z,98627.69
2023-05-21T16:47:26.085Z,98628.28
2023-05-21T16:49:59.811Z,98630.94
2023-05-21T16:52:33.470Z,98624.16
2023-05-21T16:55:29.357Z,98633.91
2023-05-21T16:58:06.427Z,98630.47
2023-05-21T17:00:39.596Z,98627.69
2023-05-21T17:03:13.046Z,98624.72
2023-05-21T17:05:49.637Z,98625.16
2023-05-21T17:08:23.206Z,98629.44
2023-05-21T17:11:01.450Z,98629.88
2023-05-21T17:13:52.497Z,98624.69
2023-05-21T17:16:26.207Z,98626.03
2023-05-21T17:19:02.483Z,98632.84
2023-05-21T17:21:35.987Z,98628.22
2023-05-21T17:24:09.082Z,98628.22
2023-05-21T17:26:42.265Z,98624.97
2023-05-21T17:29:17.115Z,98621.84
2023-05-21T17:31:50.925Z,98635.47
2023-05-21T17:34:29.483Z,98630.44
2023-05-21T17:37:02.866Z,98626.63
2023-05-21T17:39:36.315Z,98629.53
2023-05-21T17:42:09.879Z,98628.84
2023-05-21T17:44:44.333Z,98629.66
2023-05-21T17:47:17.257Z,98633.94
2023-05-21T17:49:50.229Z,98623.09
2023-05-21T17:52:23.313Z,98628.22
2023-05-21T17:54:56.419Z,98623.22
2023-05-21T17:57:29.619Z,98620.53
2023-05-21T18:00:05.185Z,98631.09
2023-05-21T18:02:44.918Z,98629.19
2023-05-21T18:05:18.096Z,98627.13
2023-05-21T18:07:51.469Z,98627.13
2023-05-21T18:10:24.737Z,98641.41
2023-05-21T18:12:58.018Z,98625.91
2023-05-21T18:15:33.192Z,98635.59
2023-05-21T18:18:06.522Z,98636.38
2023-05-21T18:20:39.765Z,98632.88
2023-05-21T18:23:12.884Z,98631.63
2023-05-21T18:25:45.901Z,98633.56
2023-05-21T18:28:18.889Z,98637.84
2023-05-21T18:30:55.197Z,98633.03
2023-05-21T18:33:28.598Z,98627.94
2023-05-21T18:36:01.891Z,98646.50
2023-05-21T18:38:34.946Z,98645.56
2023-05-21T18:41:08.061Z,98636.41
2023-05-21T18:43:42.262Z,98639.38
2023-05-21T18:46:16.680Z,98644.00
2023-05-21T18:48:49.941Z,98644.69
2023-05-21T18:51:22.939Z,98647.78
2023-05-21T18:53:55.891Z,98647.41
2023-05-21T18:56:28.767Z,98657.03
2023-05-21T18:59:01.669Z,98655.25
2023-05-21T19:01:36.044Z,98657.03
2023-05-21T19:04:08.960Z,98657.66
2023-05-21T19:06:41.823Z,98659.03
2023-05-21T19:09:15.137Z,98653.72
2023-05-21T19:11:48.240Z,98651.38
2023-05-21T19:14:21.409Z,98655.66
2023-05-21T19:16:55.847Z,98663.16
2023-05-21T19:19:28.784Z,98673.03
2023-05-21T19:22:01.872Z,98662.72
2023-05-21T19:24:34.786Z,98667.88
2023-05-21T19:27:07.568Z,98661.69
2023-05-21T19:29:40.381Z,98662.19
2023-05-21T19:32:15.969Z,98671.16
2023-05-21T19:34:48.867Z,98670.69
2023-05-21T19:37:21.814Z,98678.66
2023-05-21T19:39:54.601Z,98682.69
2023-05-21T19:42:27.648Z,98676.88
2023-05-21T19:45:00.522Z,98683.88
2023-05-21T19:47:34.839Z,98685.19
2023-05-21T19:50:10.081Z,98677.50
2023-05-21T19:52:45.350Z,98686.84
2023-05-21T19:55:20.222Z,98683.13
2023-05-21T19:57:53.313Z,98689.97
2023-05-21T20:00:26.361Z,98692.16
2023-05-21T20:03:00.731Z,98692.53
2023-05-21T20:05:33.574Z,98692.09
2023-05-21T20:08:06.458Z,98688.75
2023-05-21T20:10:40.472Z,98699.78
2023-05-21T20:13:13.498Z,98688.53
2023-05-21T20:15:47.873Z,98695.16
2023-05-21T20:18:22.342Z,98693.16
2023-05-21T20:20:56.846Z,98697.13
2023-05-21T20:23:29.682Z,98699.97
2023-05-21T20:26:02.536Z,98708.53
2023-05-21T20:28:35.546Z,98696.28
2023-05-21T20:31:08.494Z,98703.53
2023-05-21T20:33:43.040Z,98701.25
2023-05-21T20:36:17.781Z,98708.97
2023-05-21T20:38:50.631Z,98700.91
2023-05-21T20:41:25.264Z,98707.72
2023-05-21T20:43:58.996Z,98697.94
2023-05-21T20:46:32.414Z,98701.72
2023-05-21T20:49:06.829Z,98699.63
2023-05-21T20:51:40.023Z,98697.41
2023-05-21T20:54:13.546Z,98697.53
2023-05-21T20:56:46.410Z,98696.50
2023-05-21T20:59:19.558Z,98699.84
2023-05-21T21:01:52.596Z,98694.91
2023-05-21T21:04:27.659Z,98695.97
2023-05-21T21:07:02.011Z,98701.72
2023-05-21T21:09:34.997Z,98696.97
2023-05-21T21:12:24.165Z,98707.81
2023-05-21T21:14:58.744Z,98704.75
2023-05-21T21:17:31.627Z,98713.78
2023-05-21T21:20:07.888Z,98715.66
2023-05-21T21:22:41.318Z,98717.72
2023-05-21T21:25:15.285Z,98720.44
2023-05-21T21:27:48.316Z,98722.78
2023-05-21T21:30:21.375Z,98720.66
2023-05-21T21:32:54.410Z,98716.16
2023-05-21T21:35:28.803Z,98722.50
2023-05-21T21:38:02.032Z,98723.28
2023-05-21T21:40:35.024Z,98724.53
2023-05-21T21:43:08.033Z,98728.44
2023-05-21T21:45:41.265Z,98730.59
2023-05-21T21:48:16.428Z,98722.56
2023-05-21T21:50:50.840Z,98735.47
2023-05-21T21:53:23.744Z,98731.97
2023-05-21T21:55:56.932Z,98730.31
2023-05-21T21:58:30.016Z,98729.94
2023-05-21T22:01:02.897Z,98730.78
2023-05-21T22:03:35.706Z,98738.19
2023-05-21T22:06:09.986Z,98738.06
2023-05-21T22:08:43.026Z,98734.25
2023-05-21T22:11:15.823Z,98736.13
2023-05-21T22:13:48.824Z,98730.06
2023-05-21T22:16:21.705Z,98726.97
2023-05-21T22:18:55.185Z,98731.91
2023-05-21T22:21:32.756Z,98732.63
2023-05-21T22:24:05.901Z,98729.00
2023-05-21T22:26:38.692Z,98730.34
2023-05-21T22:29:11.577Z,98733.69
2023-05-21T22:31:44.483Z,98735.97
2023-05-21T22:34:17.320Z,98738.88
2023-05-21T22:36:51.520Z,98734.59
2023-05-21T22:39:24.347Z,98750.56
2023-05-21T22:41:57.256Z,98753.31
2023-05-21T22:44:30.068Z,98738.88
2023-05-21T22:47:03.343Z,98741.03
2023-05-21T22:49:38.086Z,98739.50
2023-05-21T22:52:12.309Z,98743.56
2023-05-21T22:54:45.149Z,98744.41
2023-05-21T22:57:17.951Z,98740.34
2023-05-21T22:59:50.827Z,98747.25
2023-05-21T23:02:23.823Z,98740.31
2023-05-21T23:04:58.110Z,98741.75
2023-05-21T23:07:32.389Z,98748.81
2023-05-21T23:10:05.959Z,98744.13
2023-05-21T23:12:38.832Z,98748.72
2023-05-21T23:15:12.372Z,98746.13
2023-05-21T23:17:45.841Z,98741.25
2023-05-21T23:20:19.009Z,98740.63
2023-05-21T23:22:53.511Z,98752.22
2023-05-21T23:25:26.343Z,98742.84
2023-05-21T23:27:59.123Z,98748.16
2023-05-21T23:30:32.015Z,98746.75
2023-05-21T23:33:04.977Z,98747.69
2023-05-21T23:35:37.764Z,98739.53
2023-05-21T23:38:11.972Z,98749.41
2023-05-21T23:40:44.840Z,98744.72
2023-05-21T23:43:17.816Z,98750.81
2023-05-21T23:45:50.684Z,98745.66
2023-05-21T23:48:23.648Z,98748.78
2023-05-21T23:50:56.567Z,98741.13
2023-05-21T23:53:30.780Z,98744.88
2023-05-21T23:56:03.624Z,98735.97
2023-05-21T23:58:36.472Z,98741.44
